createdAt,value
2022-10-23T00:01:27.608Z,12.48
2022-10-23T00:03:57.451Z,12.14
2022-10-23T00:06:24.709Z,12.27
2022-10-23T00:08:51.878Z,12.50
2022-10-23T00:11:22.555Z,12.27
2022-10-23T00:13:50.149Z,12.49
2022-10-23T00:16:17.232Z,12.37
2022-10-23T00:18:46.006Z,12.51
2022-10-23T00:21:15.361Z,12.15
2022-10-23T00:23:43.098Z,12.34
2022-10-23T00:26:16.002Z,12.37
2022-10-23T00:28:48.929Z,12.50
2022-10-23T00:31:16.538Z,12.46
2022-10-23T00:33:43.894Z,12.52
2022-10-23T00:36:13.906Z,12.38
2022-10-23T00:38:41.307Z,12.51
2022-10-23T00:41:10.248Z,12.55
2022-10-23T00:43:59.141Z,12.53
2022-10-23T00:46:26.649Z,12.49
2022-10-23T00:48:53.482Z,12.43
2022-10-23T00:51:20.631Z,12.53
2022-10-23T00:54:01.059Z,12.59
2022-10-23T00:56:39.870Z,12.60
2022-10-23T00:59:07.153Z,12.61
2022-10-23T01:01:34.407Z,12.60
2022-10-23T01:04:03.316Z,12.57
2022-10-23T01:06:46.718Z,12.56
2022-10-23T01:09:23.011Z,12.56
2022-10-23T01:12:02.569Z,12.54
2022-10-23T01:14:53.168Z,12.45
2022-10-23T01:17:44.563Z,12.46
2022-10-23T01:20:14.490Z,12.45
2022-10-23T01:22:59.370Z,12.44
2022-10-23T01:26:11.316Z,12.43
2022-10-23T01:28:47.274Z,12.42
2022-10-23T01:31:24.987Z,12.36
2022-10-23T01:33:57.966Z,12.30
2022-10-23T01:36:29.191Z,12.37
2022-10-23T01:39:09.585Z,12.37
2022-10-23T01:41:43.787Z,12.40
2022-10-23T01:44:22.836Z,12.39
2022-10-23T01:46:52.371Z,12.37
2022-10-23T01:49:21.787Z,12.41
2022-10-23T01:51:59.479Z,12.35
2022-10-23T01:54:31.454Z,12.36
2022-10-23T01:56:59.493Z,12.41
2022-10-23T01:59:32.391Z,12.41
2022-10-23T02:02:01.132Z,12.34
2022-10-23T02:04:34.296Z,12.39
2022-10-23T02:07:01.225Z,12.35
2022-10-23T02:09:28.129Z,12.31
2022-10-23T02:12:09.986Z,12.33
2022-10-23T02:14:52.176Z,12.31
2022-10-23T02:17:29.611Z,12.36
2022-10-23T02:20:07.806Z,12.26
2022-10-23T02:22:41.711Z,12.36
2022-10-23T02:25:18.494Z,12.35
2022-10-23T02:27:53.837Z,12.38
2022-10-23T02:30:21.388Z,12.34
2022-10-23T02:32:51.057Z,12.38
2022-10-23T02:35:21.727Z,12.37
2022-10-23T02:37:59.475Z,12.38
2022-10-23T02:40:41.481Z,12.40
2022-10-23T02:43:17.549Z,12.30
2022-10-23T02:46:04.627Z,12.46
2022-10-23T02:48:51.677Z,12.39
2022-10-23T02:51:47.947Z,12.34
2022-10-23T02:54:50.286Z,12.46
2022-10-23T02:57:25.069Z,12.46
2022-10-23T03:00:11.729Z,12.44
2022-10-23T03:02:50.513Z,12.49
2022-10-23T03:05:22.433Z,12.45
2022-10-23T03:07:49.637Z,12.41
2022-10-23T03:10:16.674Z,12.54
2022-10-23T03:12:44.103Z,12.54
2022-10-23T03:15:12.105Z,12.52
2022-10-23T03:17:39.396Z,12.54
2022-10-23T03:20:07.127Z,12.49
2022-10-23T03:22:34.038Z,12.48
2022-10-23T03:25:00.867Z,12.40
2022-10-23T03:29:59.300Z,12.49
2022-10-23T03:32:26.155Z,12.45
2022-10-23T03:34:53.001Z,12.47
2022-10-23T03:37:19.734Z,12.50
2022-10-23T03:39:46.563Z,12.49
2022-10-23T03:42:13.690Z,12.49
2022-10-23T03:44:40.668Z,12.40
2022-10-23T03:47:10.066Z,12.47
2022-10-23T03:49:36.931Z,12.46
2022-10-23T03:52:04.173Z,12.31
2022-10-23T03:54:31.112Z,12.25
2022-10-23T03:56:58.015Z,12.30
2022-10-23T03:59:24.891Z,12.32
2022-10-23T04:01:51.881Z,12.31
2022-10-23T04:04:18.880Z,12.31
2022-10-23T04:06:45.760Z,12.23
2022-10-23T04:11:44.498Z,12.27
2022-10-23T04:14:13.724Z,12.18
2022-10-23T04:16:40.857Z,12.09
2022-10-23T04:19:07.712Z,12.16
2022-10-23T04:21:34.721Z,12.31
2022-10-23T04:24:01.722Z,12.15
2022-10-23T04:26:28.501Z,12.25
2022-10-23T04:28:55.369Z,12.13
2022-10-23T04:31:22.119Z,12.12
2022-10-23T04:33:48.897Z,12.19
2022-10-23T04:36:15.695Z,12.25
2022-10-23T04:38:43.339Z,12.21
2022-10-23T04:41:10.182Z,12.19
2022-10-23T04:43:37.270Z,12.22
2022-10-23T04:46:04.228Z,12.19
2022-10-23T04:48:31.311Z,12.09
2022-10-23T04:51:06.319Z,12.08
2022-10-23T04:53:33.294Z,12.16
2022-10-23T04:56:00.344Z,12.10
2022-10-23T04:58:28.910Z,12.17
2022-10-23T05:00:56.291Z,12.21
2022-10-23T05:03:24.826Z,12.20
2022-10-23T05:05:55.991Z,12.15
2022-10-23T05:08:23.762Z,12.16
2022-10-23T05:10:50.554Z,12.18
2022-10-23T05:13:20.107Z,12.16
2022-10-23T05:15:51.637Z,11.98
2022-10-23T05:18:32.222Z,12.11
2022-10-23T05:21:07.960Z,12.05
2022-10-23T05:23:36.966Z,12.14
2022-10-23T05:26:04.846Z,12.18
2022-10-23T05:28:31.634Z,12.02
2022-10-23T05:31:01.253Z,12.12
2022-10-23T05:33:30.232Z,12.19
2022-10-23T05:35:58.298Z,12.17
2022-10-23T05:38:27.780Z,12.11
2022-10-23T05:40:54.849Z,12.23
2022-10-23T05:43:21.662Z,12.25
2022-10-23T05:45:49.116Z,12.04
2022-10-23T05:48:33.496Z,12.18
2022-10-23T05:51:08.487Z,12.14
2022-10-23T05:53:38.702Z,12.25
2022-10-23T05:56:09.235Z,12.32
2022-10-23T05:58:36.526Z,12.36
2022-10-23T06:01:11.059Z,12.25
2022-10-23T06:03:39.502Z,12.34
2022-10-23T06:06:07.869Z,12.51
2022-10-23T06:08:35.131Z,12.57
2022-10-23T06:11:09.897Z,12.50
2022-10-23T06:13:37.042Z,12.67
2022-10-23T06:16:16.331Z,12.69
2022-10-23T06:18:43.748Z,12.73
2022-10-23T06:21:10.653Z,12.68
2022-10-23T06:23:38.895Z,12.74
2022-10-23T06:26:07.169Z,12.72
2022-10-23T06:28:34.011Z,12.74
2022-10-23T06:31:04.971Z,12.65
2022-10-23T06:33:31.858Z,12.74
2022-10-23T06:35:58.736Z,12.79
2022-10-23T06:38:26.157Z,12.86
2022-10-23T06:40:57.002Z,12.79
2022-10-23T06:43:23.878Z,12.78
2022-10-23T06:45:50.799Z,12.78
2022-10-23T06:48:17.536Z,12.78
2022-10-23T06:50:44.418Z,12.83
2022-10-23T06:53:13.060Z,12.74
2022-10-23T06:55:43.185Z,12.74
2022-10-23T06:58:11.023Z,12.91
2022-10-23T07:00:39.091Z,12.84
2022-10-23T07:03:06.358Z,12.66
2022-10-23T07:05:33.233Z,12.74
2022-10-23T07:08:00.038Z,13.01
2022-10-23T07:10:27.445Z,12.97
2022-10-23T07:12:54.513Z,12.99
2022-10-23T07:15:21.279Z,13.04
2022-10-23T07:17:48.089Z,12.97
2022-10-23T07:20:14.961Z,13.00
2022-10-23T07:22:41.977Z,13.06
2022-10-23T07:25:09.231Z,13.00
2022-10-23T07:27:39.997Z,13.02
2022-10-23T07:30:07.511Z,12.99
2022-10-23T07:32:34.373Z,12.96
2022-10-23T07:35:02.011Z,13.05
2022-10-23T07:37:30.263Z,13.02
2022-10-23T07:39:57.045Z,12.87
2022-10-23T07:42:24.072Z,12.88
2022-10-23T07:44:50.987Z,12.97
2022-10-23T07:47:17.822Z,12.87
2022-10-23T07:49:44.627Z,12.88
2022-10-23T07:52:11.448Z,13.00
2022-10-23T07:54:38.285Z,13.07
2022-10-23T07:57:05.325Z,12.84
2022-10-23T07:59:37.152Z,13.05
2022-10-23T08:02:05.025Z,12.85
2022-10-23T08:04:31.811Z,13.03
2022-10-23T08:06:58.713Z,13.08
2022-10-23T08:09:25.593Z,12.91
2022-10-23T08:11:52.378Z,13.19
2022-10-23T08:14:19.183Z,13.27
2022-10-23T08:16:45.983Z,13.54
2022-10-23T08:19:13.164Z,13.69
2022-10-23T08:21:40.292Z,13.86
2022-10-23T08:24:07.388Z,13.78
2022-10-23T08:26:34.163Z,14.12
2022-10-23T08:29:01.552Z,14.51
2022-10-23T08:31:29.212Z,14.73
2022-10-23T08:33:56.003Z,14.73
2022-10-23T08:36:25.196Z,14.66
2022-10-23T08:38:56.592Z,14.48
2022-10-23T08:41:25.612Z,14.29
2022-10-23T08:44:01.925Z,14.03
2022-10-23T08:46:35.633Z,13.89
2022-10-23T08:49:36.623Z,13.84
2022-10-23T08:52:14.112Z,13.71
2022-10-23T08:55:02.905Z,13.66
2022-10-23T08:57:40.078Z,13.77
2022-10-23T09:00:15.354Z,13.56
2022-10-23T09:02:48.100Z,13.69
2022-10-23T09:05:50.021Z,13.67
2022-10-23T09:08:32.098Z,13.68
2022-10-23T09:11:08.388Z,13.59
2022-10-23T09:13:53.215Z,13.73
2022-10-23T09:16:41.113Z,13.63
2022-10-23T09:19:15.015Z,13.69
2022-10-23T09:21:43.043Z,13.69
2022-10-23T09:24:18.425Z,13.85
2022-10-23T09:26:49.927Z,13.97
2022-10-23T09:29:26.864Z,13.99
2022-10-23T09:31:56.572Z,14.23
2022-10-23T09:34:26.650Z,14.35
2022-10-23T09:37:22.542Z,14.57
2022-10-23T09:39:49.377Z,14.84
2022-10-23T09:42:26.213Z,15.13
2022-10-23T09:44:55.135Z,15.40
2022-10-23T09:47:25.376Z,15.57
2022-10-23T09:49:54.768Z,15.87
2022-10-23T09:52:38.658Z,15.98
2022-10-23T09:55:26.257Z,16.25
2022-10-23T09:57:54.060Z,16.57
2022-10-23T10:00:24.165Z,16.73
2022-10-23T10:02:59.261Z,16.53
2022-10-23T10:05:32.313Z,16.78
2022-10-23T10:08:11.108Z,16.76
2022-10-23T10:10:48.046Z,16.94
2022-10-23T10:13:44.305Z,17.20
2022-10-23T10:16:28.225Z,17.35
2022-10-23T10:19:19.757Z,17.53
2022-10-23T10:22:08.904Z,17.37
2022-10-23T10:24:58.046Z,17.26
2022-10-23T10:27:51.108Z,17.54
2022-10-23T10:30:25.578Z,17.46
2022-10-23T10:33:49.998Z,17.41
2022-10-23T10:36:39.277Z,17.53
2022-10-23T10:39:31.912Z,17.48
2022-10-23T10:42:15.607Z,17.50
2022-10-23T10:45:00.267Z,17.60
2022-10-23T10:47:41.499Z,17.58
2022-10-23T10:50:17.511Z,17.80
2022-10-23T10:52:49.372Z,17.99
2022-10-23T10:55:22.704Z,17.90
2022-10-23T10:58:24.601Z,17.71
2022-10-23T11:00:57.107Z,18.09
2022-10-23T11:03:46.006Z,18.08
2022-10-23T11:06:16.916Z,18.20
2022-10-23T11:08:57.477Z,18.19
2022-10-23T11:11:44.143Z,18.23
2022-10-23T11:14:25.921Z,18.17
2022-10-23T11:17:19.834Z,18.06
2022-10-23T11:20:05.142Z,18.13
2022-10-23T11:22:44.299Z,18.27
2022-10-23T11:25:48.652Z,18.22
2022-10-23T11:28:36.792Z,18.07
2022-10-23T11:31:43.430Z,17.84
2022-10-23T11:34:26.326Z,17.48
2022-10-23T11:36:56.464Z,17.34
2022-10-23T11:39:34.071Z,17.03
2022-10-23T11:42:13.452Z,16.92
2022-10-23T11:44:49.331Z,16.60
2022-10-23T11:47:28.552Z,16.62
2022-10-23T11:50:07.597Z,16.42
2022-10-23T11:53:12.587Z,16.61
2022-10-23T11:55:42.354Z,16.68
2022-10-23T11:58:19.589Z,16.85
2022-10-23T12:00:58.231Z,16.69
2022-10-23T12:03:32.417Z,17.14
2022-10-23T12:06:05.096Z,17.19
2022-10-23T12:08:36.024Z,17.22
2022-10-23T12:11:03.158Z,17.71
2022-10-23T12:13:39.181Z,17.87
2022-10-23T12:16:10.008Z,18.09
2022-10-23T12:19:19.742Z,17.74
2022-10-23T12:21:47.586Z,17.67
2022-10-23T12:24:40.050Z,17.46
2022-10-23T12:27:11.853Z,17.52
2022-10-23T12:29:48.780Z,17.83
2022-10-23T12:32:46.747Z,17.91
2022-10-23T12:35:47.764Z,17.87
2022-10-23T12:38:24.734Z,17.61
2022-10-23T12:40:54.126Z,17.27
2022-10-23T12:43:26.392Z,17.57
2022-10-23T12:45:55.413Z,17.39
2022-10-23T12:48:24.925Z,16.86
2022-10-23T12:50:56.180Z,17.20
2022-10-23T12:53:23.725Z,17.02
2022-10-23T12:58:35.503Z,16.15
2022-10-23T13:01:07.140Z,16.22
2022-10-23T13:03:35.360Z,15.84
2022-10-23T13:06:03.360Z,15.71
2022-10-23T13:08:46.146Z,15.77
2022-10-23T13:11:20.112Z,15.65
2022-10-23T13:13:49.892Z,15.35
2022-10-23T13:16:22.687Z,15.17
2022-10-23T13:18:54.499Z,15.60
2022-10-23T13:21:23.026Z,15.19
2022-10-23T13:23:54.507Z,15.44
2022-10-23T13:26:46.079Z,15.37
2022-10-23T13:29:42.280Z,15.72
2022-10-23T13:32:13.555Z,15.40
2022-10-23T13:34:58.152Z,15.72
2022-10-23T13:37:37.436Z,15.23
2022-10-23T13:40:24.094Z,15.71
2022-10-23T13:42:52.710Z,15.68
2022-10-23T13:45:25.280Z,15.67
2022-10-23T13:47:52.184Z,15.69
2022-10-23T13:50:19.768Z,15.66
2022-10-23T13:52:48.746Z,15.61
2022-10-23T13:55:20.805Z,15.94
2022-10-23T13:57:49.438Z,15.82
2022-10-23T14:00:16.820Z,16.39
2022-10-23T14:02:44.091Z,16.40
2022-10-23T14:05:12.070Z,16.74
2022-10-23T14:07:39.170Z,16.80
2022-10-23T14:10:06.355Z,17.08
2022-10-23T14:12:44.233Z,17.06
2022-10-23T14:15:12.222Z,16.71
2022-10-23T14:17:39.083Z,16.95
2022-10-23T14:20:06.708Z,16.84
2022-10-23T14:22:33.949Z,16.88
2022-10-23T14:25:00.810Z,16.77
2022-10-23T14:27:27.661Z,17.26
2022-10-23T14:29:54.367Z,17.19
2022-10-23T14:32:21.238Z,17.36
2022-10-23T14:34:52.375Z,17.26
2022-10-23T14:37:19.703Z,17.29
2022-10-23T14:39:50.178Z,17.28
2022-10-23T14:42:17.385Z,17.29
2022-10-23T14:44:45.109Z,17.26
2022-10-23T14:47:12.273Z,17.07
2022-10-23T14:49:40.410Z,17.18
2022-10-23T14:52:07.860Z,17.14
2022-10-23T14:54:36.522Z,17.14
2022-10-23T14:57:03.791Z,17.18
2022-10-23T14:59:30.886Z,17.19
2022-10-23T15:01:57.705Z,17.10
2022-10-23T15:04:24.631Z,17.02
2022-10-23T15:06:51.790Z,17.10
2022-10-23T15:09:20.383Z,17.14
2022-10-23T15:11:47.611Z,17.01
2022-10-23T15:14:14.422Z,17.09
2022-10-23T15:16:42.292Z,17.05
2022-10-23T15:19:17.401Z,17.00
2022-10-23T15:21:47.275Z,16.95
2022-10-23T15:24:14.992Z,16.98
2022-10-23T15:26:43.981Z,16.88
2022-10-23T15:29:11.771Z,16.89
2022-10-23T15:31:38.748Z,16.90
2022-10-23T15:34:06.502Z,16.86
2022-10-23T15:36:34.434Z,16.55
2022-10-23T15:39:01.718Z,16.73
2022-10-23T15:41:33.876Z,16.43
2022-10-23T15:44:02.277Z,16.29
2022-10-23T15:46:29.745Z,16.49
2022-10-23T15:48:56.702Z,16.81
2022-10-23T15:51:23.672Z,16.41
2022-10-23T15:53:52.296Z,16.69
2022-10-23T15:56:19.297Z,16.57
2022-10-23T15:58:46.550Z,16.73
2022-10-23T16:01:13.672Z,16.21
2022-10-23T16:03:40.645Z,16.33
2022-10-23T16:06:13.549Z,16.21
2022-10-23T16:08:41.135Z,16.00
2022-10-23T16:11:19.390Z,16.12
2022-10-23T16:13:50.300Z,16.18
2022-10-23T16:16:18.233Z,16.03
2022-10-23T16:18:45.472Z,16.08
2022-10-23T16:21:24.075Z,15.93
2022-10-23T16:23:53.236Z,15.56
2022-10-23T16:26:21.188Z,15.44
2022-10-23T16:28:50.865Z,15.48
2022-10-23T16:31:20.655Z,15.04
2022-10-23T16:33:49.588Z,15.23
2022-10-23T16:36:17.873Z,15.17
2022-10-23T16:38:44.756Z,14.99
2022-10-23T16:41:11.678Z,15.31
2022-10-23T16:43:38.952Z,14.90
2022-10-23T16:46:13.016Z,15.25
2022-10-23T16:48:41.666Z,15.19
2022-10-23T16:51:14.080Z,15.14
2022-10-23T16:53:42.578Z,14.78
2022-10-23T16:56:11.297Z,14.93
2022-10-23T16:58:41.174Z,14.48
2022-10-23T17:01:14.124Z,14.41
2022-10-23T17:03:44.790Z,14.30
2022-10-23T17:06:14.602Z,14.25
2022-10-23T17:08:42.255Z,14.24
2022-10-23T17:11:13.226Z,14.01
2022-10-23T17:13:42.860Z,13.90
2022-10-23T17:16:19.524Z,13.86
2022-10-23T17:18:46.977Z,13.73
2022-10-23T17:21:15.787Z,13.66
2022-10-23T17:23:43.402Z,13.57
2022-10-23T17:26:13.084Z,13.25
2022-10-23T17:28:42.346Z,13.27
2022-10-23T17:31:12.408Z,13.27
2022-10-23T17:33:40.300Z,13.26
2022-10-23T17:36:07.997Z,13.20
2022-10-23T17:38:39.071Z,13.27
2022-10-23T17:41:07.813Z,13.22
2022-10-23T17:43:35.942Z,13.06
2022-10-23T17:46:04.728Z,13.15
2022-10-23T17:48:32.141Z,13.09
2022-10-23T17:51:03.826Z,13.04
2022-10-23T17:53:30.889Z,12.84
2022-10-23T17:56:06.961Z,12.84
2022-10-23T17:58:35.383Z,12.69
2022-10-23T18:01:10.532Z,12.75
2022-10-23T18:03:42.254Z,12.48
2022-10-23T18:06:10.506Z,12.59
2022-10-23T18:08:38.615Z,12.35
2022-10-23T18:11:06.849Z,12.43
2022-10-23T18:13:35.503Z,12.44
2022-10-23T18:16:03.954Z,12.23
2022-10-23T18:18:30.859Z,12.24
2022-10-23T18:20:59.368Z,12.20
2022-10-23T18:23:28.209Z,12.10
2022-10-23T18:25:55.897Z,12.05
2022-10-23T18:28:22.785Z,11.80
2022-10-23T18:30:53.452Z,11.77
2022-10-23T18:33:23.890Z,11.80
2022-10-23T18:35:51.378Z,11.60
2022-10-23T18:38:18.329Z,11.56
2022-10-23T18:40:45.763Z,11.38
2022-10-23T18:43:15.344Z,11.39
2022-10-23T18:45:47.726Z,11.26
2022-10-23T18:48:14.631Z,11.35
2022-10-23T18:50:41.825Z,10.78
2022-10-23T18:53:08.820Z,11.05
2022-10-23T18:55:35.697Z,10.97
2022-10-23T18:58:02.621Z,11.14
2022-10-23T19:00:29.642Z,10.74
2022-10-23T19:02:56.636Z,10.44
2022-10-23T19:05:26.299Z,10.41
2022-10-23T19:07:54.587Z,10.45
2022-10-23T19:10:22.557Z,10.86
2022-10-23T19:12:50.377Z,10.44
2022-10-23T19:15:17.723Z,10.24
2022-10-23T19:17:44.674Z,10.62
2022-10-23T19:20:16.827Z,9.92
2022-10-23T19:22:47.799Z,10.18
2022-10-23T19:25:19.873Z,10.07
2022-10-23T19:27:49.886Z,9.82
2022-10-23T19:30:22.578Z,10.18
2022-10-23T19:32:51.438Z,10.21
2022-10-23T19:35:21.067Z,10.26
2022-10-23T19:37:48.208Z,10.18
2022-10-23T19:40:15.782Z,10.24
2022-10-23T19:42:43.619Z,10.25
2022-10-23T19:45:13.682Z,10.32
2022-10-23T19:47:42.013Z,10.19
2022-10-23T19:50:10.287Z,10.25
2022-10-23T19:52:37.272Z,10.13
2022-10-23T19:55:05.971Z,10.30
2022-10-23T19:57:37.354Z,10.14
2022-10-23T20:00:05.424Z,10.32
2022-10-23T20:05:08.664Z,10.12
2022-10-23T20:07:37.235Z,10.04
2022-10-23T20:10:06.367Z,9.96
2022-10-23T20:12:33.550Z,9.77
2022-10-23T20:15:00.525Z,9.91
2022-10-23T20:17:27.588Z,9.79
2022-10-23T20:19:54.600Z,9.28
2022-10-23T20:22:21.512Z,9.68
2022-10-23T20:24:49.134Z,9.84
2022-10-23T20:27:16.079Z,9.80
2022-10-23T20:29:43.319Z,9.57
2022-10-23T20:32:11.720Z,9.63
2022-10-23T20:34:42.251Z,9.78
2022-10-23T20:37:09.198Z,9.85
2022-10-23T20:39:36.884Z,9.68
2022-10-23T20:42:04.754Z,9.75
2022-10-23T20:44:31.942Z,9.88
2022-10-23T20:46:58.851Z,9.44
2022-10-23T20:49:26.114Z,9.59
2022-10-23T20:51:56.989Z,9.67
2022-10-23T20:54:25.975Z,9.62
2022-10-23T20:56:53.184Z,9.83
2022-10-23T20:59:20.407Z,9.71
2022-10-23T21:01:50.240Z,9.60
2022-10-23T21:04:20.476Z,9.30
2022-10-23T21:07:08.781Z,9.78
2022-10-23T21:09:38.197Z,9.63
2022-10-23T21:12:06.894Z,9.75
2022-10-23T21:14:34.416Z,9.87
2022-10-23T21:17:01.660Z,9.69
2022-10-23T21:19:29.023Z,9.61
2022-10-23T21:21:56.099Z,9.60
2022-10-23T21:24:24.342Z,9.59
2022-10-23T21:26:52.241Z,9.86
2022-10-23T21:29:20.354Z,9.71
2022-10-23T21:31:59.442Z,9.93
2022-10-23T21:34:27.411Z,9.79
2022-10-23T21:37:12.063Z,9.62
2022-10-23T21:39:39.929Z,9.83
2022-10-23T21:42:07.063Z,10.13
2022-10-23T21:44:34.023Z,9.83
2022-10-23T21:47:01.013Z,9.81
2022-10-23T21:49:27.884Z,9.77
2022-10-23T21:51:55.326Z,9.70
2022-10-23T21:54:22.407Z,9.78
2022-10-23T21:56:54.026Z,9.76
2022-10-23T21:59:24.767Z,9.77
2022-10-23T22:01:54.222Z,10.24
2022-10-23T22:04:22.290Z,9.87
2022-10-23T22:06:51.699Z,9.92
2022-10-23T22:09:21.190Z,10.42
2022-10-23T22:11:53.484Z,10.44
2022-10-23T22:14:21.261Z,9.98
2022-10-23T22:16:50.104Z,10.35
2022-10-23T22:19:18.594Z,10.20
2022-10-23T22:21:46.346Z,10.52
2022-10-23T22:24:13.826Z,10.56
2022-10-23T22:26:49.880Z,10.63
2022-10-23T22:29:19.892Z,10.49
2022-10-23T22:31:49.643Z,10.56
2022-10-23T22:34:27.019Z,10.68
2022-10-23T22:37:07.878Z,10.58
2022-10-23T22:39:34.700Z,10.56
2022-10-23T22:42:01.424Z,10.63
2022-10-23T22:44:28.321Z,10.59
2022-10-23T22:46:57.946Z,10.68
2022-10-23T22:49:24.705Z,10.70
2022-10-23T22:51:51.938Z,10.68
2022-10-23T22:54:18.809Z,10.71
2022-10-23T22:56:45.663Z,10.69
2022-10-23T22:59:12.414Z,10.56
2022-10-23T23:01:43.204Z,10.72
2022-10-23T23:04:26.020Z,10.72
2022-10-23T23:06:59.342Z,10.71
2022-10-23T23:09:26.138Z,10.57
2022-10-23T23:11:54.310Z,10.57
2022-10-23T23:14:23.708Z,10.44
2022-10-23T23:16:53.243Z,10.42
2022-10-23T23:19:23.065Z,10.12
2022-10-23T23:21:51.417Z,10.10
2022-10-23T23:24:18.195Z,10.03
2022-10-23T23:26:45.043Z,10.00
2022-10-23T23:29:12.246Z,10.03
2022-10-23T23:31:39.289Z,9.87
2022-10-23T23:34:06.106Z,9.96
2022-10-23T23:36:34.054Z,9.90
2022-10-23T23:39:01.682Z,9.92
2022-10-23T23:41:29.684Z,9.83
2022-10-23T23:43:58.188Z,9.87
2022-10-23T23:46:25.831Z,9.71
2022-10-23T23:48:52.626Z,9.72
2022-10-23T23:51:22.199Z,9.76
2022-10-23T23:53:50.563Z,9.73
2022-10-23T23:56:18.359Z,9.53
2022-10-23T23:58:45.222Z,9.65
